createdAt,value
2022-09-01T00:00:38.375Z,99606.25
2022-09-01T00:01:42.457Z,99602.41
2022-09-01T00:02:43.967Z,99602.41
2022-09-01T00:03:45.480Z,99601.09
2022-09-01T00:04:47.087Z,99602.59
2022-09-01T00:05:48.661Z,99602.44
2022-09-01T00:06:50.217Z,99602.28
2022-09-01T00:07:51.719Z,99597.97
2022-09-01T00:08:56.541Z,99603.44
2022-09-01T00:09:59.418Z,99596.97
2022-09-01T00:11:00.889Z,99595.13
2022-09-01T00:12:04.492Z,99599.44
2022-09-01T00:13:06.504Z,99599.78
2022-09-01T00:14:10.678Z,99591.81
2022-09-01T00:15:30.772Z,99593.63
2022-09-01T00:16:32.869Z,99591.47
2022-09-01T00:17:34.391Z,99589.63
2022-09-01T00:18:35.857Z,99595.66
2022-09-01T00:19:38.717Z,99587.66
2022-09-01T00:20:40.257Z,99590.16
2022-09-01T00:21:44.390Z,99593.81
2022-09-01T00:22:45.848Z,99588.66
2022-09-01T00:23:47.574Z,99586.97
2022-09-01T00:24:49.209Z,99587.81
2022-09-01T00:25:50.668Z,99589.00
2022-09-01T00:26:52.783Z,99584.69
2022-09-01T00:27:55.209Z,99587.50
2022-09-01T00:28:57.017Z,99584.16
2022-09-01T00:29:59.748Z,99591.16
2022-09-01T00:31:01.281Z,99592.81
2022-09-01T00:32:03.270Z,99590.16
2022-09-01T00:33:04.787Z,99581.50
2022-09-01T00:34:06.425Z,99589.16
2022-09-01T00:35:08.073Z,99580.84
2022-09-01T00:36:09.704Z,99588.97
2022-09-01T00:37:11.278Z,99581.19
2022-09-01T00:38:12.752Z,99583.00
2022-09-01T00:39:15.571Z,99583.69
2022-09-01T00:40:18.109Z,99586.16
2022-09-01T00:41:23.247Z,99580.69
2022-09-01T00:42:24.753Z,99586.16
2022-09-01T00:43:45.565Z,99582.16
2022-09-01T00:44:47.239Z,99576.19
2022-09-01T00:45:49.980Z,99580.00
2022-09-01T00:46:55.202Z,99585.66
2022-09-01T00:47:57.215Z,99583.00
2022-09-01T00:49:35.271Z,99582.00
2022-09-01T00:50:37.956Z,99574.19
2022-09-01T00:51:42.834Z,99582.00
2022-09-01T00:52:54.864Z,99574.84
2022-09-01T00:53:58.551Z,99579.00
2022-09-01T00:55:04.944Z,99578.31
2022-09-01T00:56:08.034Z,99578.16
2022-09-01T00:57:10.825Z,99572.19
2022-09-01T00:58:19.644Z,99580.97
2022-09-01T00:59:23.812Z,99578.66
2022-09-01T01:00:28.849Z,99576.34
2022-09-01T01:01:30.336Z,99579.31
2022-09-01T01:02:32.045Z,99573.34
2022-09-01T01:03:34.762Z,99576.34
2022-09-01T01:04:36.332Z,99576.34
2022-09-01T01:05:42.522Z,99579.16
2022-09-01T01:06:47.208Z,99582.94
2022-09-01T01:07:49.849Z,99578.81
2022-09-01T01:08:51.364Z,99577.47
2022-09-01T01:09:53.327Z,99573.66
2022-09-01T01:10:54.802Z,99579.81
2022-09-01T01:11:56.344Z,99581.28
2022-09-01T01:12:58.247Z,99575.97
2022-09-01T01:14:03.425Z,99579.00
2022-09-01T01:15:05.492Z,99580.31
2022-09-01T01:16:07.008Z,99569.81
2022-09-01T01:17:08.588Z,99577.97
2022-09-01T01:18:14.758Z,99574.31
2022-09-01T01:19:42.212Z,99574.50
2022-09-01T01:20:44.355Z,99574.66
2022-09-01T01:21:46.021Z,99573.50
2022-09-01T01:23:10.152Z,99568.69
2022-09-01T01:24:25.992Z,99579.97
2022-09-01T01:25:29.069Z,99581.13
2022-09-01T01:26:30.578Z,99573.47
2022-09-01T01:27:42.566Z,99577.78
2022-09-01T01:28:45.215Z,99574.16
2022-09-01T01:29:46.689Z,99570.19
2022-09-01T01:30:53.987Z,99569.69
2022-09-01T01:31:55.820Z,99567.34
2022-09-01T01:32:57.959Z,99576.31
2022-09-01T01:33:59.833Z,99582.00
2022-09-01T01:35:01.756Z,99580.47
2022-09-01T01:36:03.677Z,99577.16
2022-09-01T01:37:05.265Z,99581.28
2022-09-01T01:38:06.783Z,99584.13
2022-09-01T01:39:16.175Z,99579.78
2022-09-01T01:40:20.397Z,99581.97
2022-09-01T01:41:21.940Z,99575.25
2022-09-01T01:42:23.482Z,99581.34
2022-09-01T01:43:25.741Z,99582.31
2022-09-01T01:44:27.672Z,99583.19
2022-09-01T01:45:31.994Z,99584.69
2022-09-01T01:46:35.439Z,99584.50
2022-09-01T01:47:37.326Z,99579.06
2022-09-01T01:48:41.541Z,99579.91
2022-09-01T01:49:43.841Z,99578.88
2022-09-01T01:50:45.664Z,99581.34
2022-09-01T01:51:52.708Z,99578.53
2022-09-01T01:52:58.326Z,99581.66
2022-09-01T01:54:00.816Z,99572.84
2022-09-01T01:55:05.192Z,99584.09
2022-09-01T01:56:07.037Z,99576.63
2022-09-01T01:57:10.253Z,99581.28
2022-09-01T01:58:12.186Z,99578.47
2022-09-01T01:59:14.100Z,99580.63
2022-09-01T02:00:19.086Z,99573.41
2022-09-01T02:01:30.520Z,99580.34
2022-09-01T02:02:32.156Z,99576.50
2022-09-01T02:03:34.760Z,99576.75
2022-09-01T02:04:36.483Z,99570.78
2022-09-01T02:05:43.266Z,99577.75
2022-09-01T02:06:45.388Z,99579.06
2022-09-01T02:07:49.117Z,99574.28
2022-09-01T02:08:53.137Z,99573.50
2022-09-01T02:09:54.610Z,99572.38
2022-09-01T02:10:56.753Z,99573.41
2022-09-01T02:11:58.268Z,99575.75
2022-09-01T02:13:02.443Z,99574.41
2022-09-01T02:14:06.051Z,99577.88
2022-09-01T02:15:08.148Z,99580.47
2022-09-01T02:16:10.222Z,99579.91
2022-09-01T02:17:11.755Z,99581.19
2022-09-01T02:18:15.910Z,99577.69
2022-09-01T02:19:17.457Z,99581.97
2022-09-01T02:20:18.904Z,99583.63
2022-09-01T02:21:22.204Z,99582.44
2022-09-01T02:22:23.693Z,99579.88
2022-09-01T02:23:25.447Z,99592.44
2022-09-01T02:24:27.367Z,99586.00
2022-09-01T02:25:29.644Z,99586.97
2022-09-01T02:26:39.381Z,99586.88
2022-09-01T02:27:40.845Z,99585.69
2022-09-01T02:28:45.380Z,99593.72
2022-09-01T02:29:46.871Z,99587.69
2022-09-01T02:30:51.556Z,99589.06
2022-09-01T02:31:56.212Z,99586.88
2022-09-01T02:32:57.801Z,99585.69
2022-09-01T02:33:59.329Z,99579.72
2022-09-01T02:35:01.289Z,99572.31
2022-09-01T02:36:08.286Z,99580.09
2022-09-01T02:37:09.818Z,99576.84
2022-09-01T02:38:12.109Z,99576.44
2022-09-01T02:39:15.741Z,99590.00
2022-09-01T02:40:17.289Z,99584.78
2022-09-01T02:41:18.897Z,99580.53
2022-09-01T02:42:20.711Z,99581.91
2022-09-01T02:43:22.951Z,99587.69
2022-09-01T02:44:24.509Z,99584.63
2022-09-01T02:45:28.045Z,99581.16
2022-09-01T02:46:30.360Z,99589.31
2022-09-01T02:47:31.884Z,99584.91
2022-09-01T02:48:37.353Z,99587.25
2022-09-01T02:49:39.738Z,99593.22
2022-09-01T02:50:42.055Z,99584.31
2022-09-01T02:51:45.569Z,99586.13
2022-09-01T02:52:47.048Z,99591.63
2022-09-01T02:53:48.807Z,99587.00
2022-09-01T02:54:50.475Z,99585.56
2022-09-01T02:55:52.499Z,99584.09
2022-09-01T02:56:54.337Z,99586.94
2022-09-01T02:57:57.593Z,99581.09
2022-09-01T02:58:59.568Z,99581.44
2022-09-01T03:00:02.210Z,99585.75
2022-09-01T03:01:05.910Z,99585.44
2022-09-01T03:02:07.788Z,99582.50
2022-09-01T03:03:09.726Z,99579.19
2022-09-01T03:04:12.389Z,99578.78
2022-09-01T03:05:13.986Z,99585.75
2022-09-01T03:06:15.877Z,99585.09
2022-09-01T03:07:17.351Z,99577.47
2022-09-01T03:08:19.095Z,99574.94
2022-09-01T03:09:21.332Z,99573.28
2022-09-01T03:10:25.472Z,99573.06
2022-09-01T03:11:30.363Z,99575.66
2022-09-01T03:12:32.533Z,99574.88
2022-09-01T03:13:34.064Z,99580.94
2022-09-01T03:14:35.546Z,99582.59
2022-09-01T03:15:37.780Z,99584.41
2022-09-01T03:16:40.402Z,99585.28
2022-09-01T03:17:41.947Z,99592.03
2022-09-01T03:18:43.582Z,99582.69
2022-09-01T03:19:45.115Z,99581.81
2022-09-01T03:20:47.520Z,99585.53
2022-09-01T03:21:48.984Z,99584.13
2022-09-01T03:22:55.270Z,99588.88
2022-09-01T03:23:56.827Z,99585.13
2022-09-01T03:24:58.327Z,99585.97
2022-09-01T03:26:00.038Z,99583.88
2022-09-01T03:27:02.343Z,99595.53
2022-09-01T03:28:05.691Z,99589.41
2022-09-01T03:29:08.685Z,99594.91
2022-09-01T03:30:11.536Z,99590.06
2022-09-01T03:31:13.710Z,99593.38
2022-09-01T03:32:15.945Z,99591.28
2022-09-01T03:33:20.302Z,99590.41
2022-09-01T03:34:21.858Z,99591.72
2022-09-01T03:35:26.265Z,99593.28
2022-09-01T03:36:29.214Z,99587.84
2022-09-01T03:37:30.688Z,99596.81
2022-09-01T03:38:32.666Z,99593.13
2022-09-01T03:39:34.176Z,99589.19
2022-09-01T03:40:36.916Z,99594.72
2022-09-01T03:41:38.433Z,99593.91
2022-09-01T03:42:40.309Z,99591.53
2022-09-01T03:43:46.943Z,99591.25
2022-09-01T03:44:49.930Z,99589.41
2022-09-01T03:45:51.836Z,99587.94
2022-09-01T03:46:53.398Z,99588.44
2022-09-01T03:47:56.547Z,99595.25
2022-09-01T03:48:59.579Z,99594.25
2022-09-01T03:50:01.357Z,99591.78
2022-09-01T03:51:04.165Z,99591.53
2022-09-01T03:52:05.959Z,99596.31
2022-09-01T03:53:08.000Z,99598.50
2022-09-01T03:54:10.138Z,99597.53
2022-09-01T03:55:11.636Z,99602.81
2022-09-01T03:56:13.413Z,99596.25
2022-09-01T03:57:14.891Z,99595.03
2022-09-01T03:58:18.737Z,99602.28
2022-09-01T03:59:20.506Z,99596.75
2022-09-01T04:00:26.112Z,99597.88
2022-09-01T04:01:30.137Z,99595.84
2022-09-01T04:02:31.859Z,99603.91
2022-09-01T04:03:33.921Z,99607.88
2022-09-01T04:04:37.599Z,99605.63
2022-09-01T04:05:44.144Z,99602.81
2022-09-01T04:06:46.459Z,99602.91
2022-09-01T04:07:49.275Z,99599.22
2022-09-01T04:08:51.487Z,99598.78
2022-09-01T04:09:53.122Z,99603.56
2022-09-01T04:10:55.224Z,99607.34
2022-09-01T04:11:57.100Z,99608.59
2022-09-01T04:13:02.573Z,99609.44
2022-09-01T04:14:04.065Z,99605.88
2022-09-01T04:15:09.516Z,99610.03
2022-09-01T04:16:23.816Z,99604.59
2022-09-01T04:17:29.944Z,99610.88
2022-09-01T04:18:32.229Z,99608.06
2022-09-01T04:19:37.119Z,99610.75
2022-09-01T04:20:40.996Z,99607.13
2022-09-01T04:21:44.176Z,99609.09
2022-09-01T04:22:46.838Z,99613.28
2022-09-01T04:23:48.547Z,99606.44
2022-09-01T04:24:50.067Z,99611.59
2022-09-01T04:25:53.469Z,99610.50
2022-09-01T04:26:57.004Z,99614.94
2022-09-01T04:27:58.492Z,99615.34
2022-09-01T04:28:59.972Z,99619.47
2022-09-01T04:30:01.543Z,99610.88
2022-09-01T04:31:08.124Z,99612.72
2022-09-01T04:32:11.101Z,99611.22
2022-09-01T04:33:14.325Z,99621.34
2022-09-01T04:34:15.806Z,99622.88
2022-09-01T04:35:18.248Z,99618.81
2022-09-01T04:36:24.209Z,99623.97
2022-09-01T04:37:25.890Z,99618.66
2022-09-01T04:38:31.141Z,99621.69
2022-09-01T04:39:32.628Z,99616.69
2022-09-01T04:40:39.094Z,99612.38
2022-09-01T04:41:44.637Z,99620.66
2022-09-01T04:42:46.319Z,99625.28
2022-09-01T04:43:49.790Z,99615.53
2022-09-01T04:44:52.644Z,99622.31
2022-09-01T04:45:54.166Z,99622.31
2022-09-01T04:46:56.160Z,99624.78
2022-09-01T04:47:57.888Z,99626.13
2022-09-01T04:48:59.482Z,99625.69
2022-09-01T04:50:00.958Z,99629.47
2022-09-01T04:51:07.610Z,99621.53
2022-09-01T04:52:23.830Z,99627.38
2022-09-01T04:53:28.551Z,99624.16
2022-09-01T04:54:30.526Z,99626.13
2022-09-01T04:55:32.311Z,99628.09
2022-09-01T04:56:33.788Z,99628.22
2022-09-01T04:57:45.165Z,99633.06
2022-09-01T04:58:47.361Z,99628.28
2022-09-01T04:59:49.542Z,99635.41
2022-09-01T05:00:51.176Z,99627.19
2022-09-01T05:01:54.440Z,99631.34
2022-09-01T05:03:03.161Z,99637.75
2022-09-01T05:04:16.269Z,99631.66
2022-09-01T05:05:22.259Z,99626.38
2022-09-01T05:06:24.259Z,99635.97
2022-09-01T05:07:32.328Z,99620.97
2022-09-01T05:08:34.462Z,99628.22
2022-09-01T05:09:40.084Z,99625.94
2022-09-01T05:11:04.723Z,99624.84
2022-09-01T05:12:13.272Z,99625.94
2022-09-01T05:13:20.892Z,99624.53
2022-09-01T05:14:22.627Z,99621.88
2022-09-01T05:15:24.991Z,99623.78
2022-09-01T05:16:26.566Z,99626.69
2022-09-01T05:17:30.736Z,99627.78
2022-09-01T05:18:32.755Z,99622.09
2022-09-01T05:19:34.700Z,99621.50
2022-09-01T05:20:40.318Z,99618.25
2022-09-01T05:21:42.950Z,99615.53
2022-09-01T05:22:44.432Z,99620.34
2022-09-01T05:23:46.372Z,99616.34
2022-09-01T05:24:48.507Z,99616.41
2022-09-01T05:25:51.703Z,99614.81
2022-09-01T05:26:53.175Z,99613.47
2022-09-01T05:27:54.671Z,99611.25
2022-09-01T05:29:03.314Z,99608.34
2022-09-01T05:30:06.572Z,99605.25
2022-09-01T05:31:09.437Z,99609.31
2022-09-01T05:32:11.537Z,99609.91
2022-09-01T05:33:16.772Z,99614.63
2022-09-01T05:34:22.280Z,99612.03
2022-09-01T05:35:24.291Z,99612.59
2022-09-01T05:36:33.256Z,99609.28
2022-09-01T05:37:36.515Z,99609.16
2022-09-01T05:38:38.340Z,99611.38
2022-09-01T05:39:40.232Z,99611.72
2022-09-01T05:40:43.190Z,99609.13
2022-09-01T05:41:45.283Z,99611.44
2022-09-01T05:42:46.826Z,99612.25
2022-09-01T05:43:49.595Z,99615.22
2022-09-01T05:44:52.624Z,99608.34
2022-09-01T05:46:06.180Z,99612.94
2022-09-01T05:47:09.050Z,99618.16
2022-09-01T05:48:13.832Z,99615.72
2022-09-01T05:49:16.438Z,99612.09
2022-09-01T05:50:18.210Z,99614.47
2022-09-01T05:51:43.153Z,99615.69
2022-09-01T05:52:45.081Z,99612.81
2022-09-01T05:53:47.064Z,99606.09
2022-09-01T05:54:49.959Z,99610.97
2022-09-01T05:55:53.387Z,99608.78
2022-09-01T05:56:56.602Z,99614.59
2022-09-01T05:58:01.152Z,99607.88
2022-09-01T06:00:24.515Z,99613.63
2022-09-01T06:01:28.259Z,99619.09
2022-09-01T06:02:30.150Z,99617.34
2022-09-01T06:03:33.334Z,99610.91
2022-09-01T06:04:41.079Z,99617.41
2022-09-01T06:05:46.820Z,99617.06
2022-09-01T06:07:05.998Z,99614.88
2022-09-01T06:08:09.964Z,99613.13
2022-09-01T06:09:12.892Z,99611.69
2022-09-01T06:10:14.606Z,99612.91
2022-09-01T06:11:17.528Z,99622.75
2022-09-01T06:12:19.146Z,99618.06
2022-09-01T06:13:21.263Z,99621.69
2022-09-01T06:14:27.394Z,99617.16
2022-09-01T06:15:32.308Z,99618.13
2022-09-01T06:16:34.859Z,99613.59
2022-09-01T06:17:37.216Z,99620.69
2022-09-01T06:18:39.863Z,99624.63
2022-09-01T06:19:41.676Z,99627.53
2022-09-01T06:20:46.194Z,99623.16
2022-09-01T06:21:47.805Z,99625.44
2022-09-01T06:22:49.437Z,99624.66
2022-09-01T06:23:52.120Z,99632.84
2022-09-01T06:24:56.917Z,99624.41
2022-09-01T06:26:03.238Z,99625.31
2022-09-01T06:27:08.568Z,99626.38
2022-09-01T06:28:10.063Z,99624.28
2022-09-01T06:29:11.831Z,99625.94
2022-09-01T06:30:23.500Z,99627.84
2022-09-01T06:31:43.312Z,99631.31
2022-09-01T06:32:45.335Z,99627.03
2022-09-01T06:33:46.867Z,99632.38
2022-09-01T06:34:48.388Z,99630.53
2022-09-01T06:35:49.896Z,99629.41
2022-09-01T06:36:54.263Z,99641.09
2022-09-01T06:37:56.991Z,99639.44
2022-09-01T06:39:18.765Z,99641.81
2022-09-01T06:40:23.125Z,99640.34
2022-09-01T06:41:24.953Z,99641.72
2022-09-01T06:42:26.465Z,99639.31
2022-09-01T06:43:33.474Z,99647.38
2022-09-01T06:44:40.753Z,99643.09
2022-09-01T06:45:46.094Z,99640.63
2022-09-01T06:46:49.708Z,99639.19
2022-09-01T06:47:59.366Z,99635.22
2022-09-01T06:49:02.685Z,99635.25
2022-09-01T06:50:05.299Z,99634.78
2022-09-01T06:51:15.827Z,99639.75
2022-09-01T06:52:19.303Z,99634.41
2022-09-01T06:53:36.091Z,99635.50
2022-09-01T06:54:40.967Z,99641.66
2022-09-01T06:55:42.700Z,99642.75
2022-09-01T06:56:51.156Z,99652.78
2022-09-01T06:58:09.235Z,99641.41
2022-09-01T06:59:15.499Z,99643.50
2022-09-01T07:00:20.457Z,99643.25
2022-09-01T07:01:23.853Z,99647.59
2022-09-01T07:02:26.939Z,99647.53
2022-09-01T07:04:16.958Z,99648.56
2022-09-01T07:07:53.227Z,99650.47
2022-09-01T07:08:25.659Z,99652.25
2022-09-01T07:09:47.552Z,99645.41
2022-09-01T07:13:05.553Z,99645.78
2022-09-01T07:14:15.591Z,99648.13
2022-09-01T07:16:41.921Z,99643.28
2022-09-01T07:17:57.183Z,99644.75
2022-09-01T07:18:59.097Z,99648.91
2022-09-01T07:21:41.725Z,99647.63
2022-09-01T07:24:09.060Z,99643.56
2022-09-01T07:25:13.069Z,99644.94
2022-09-01T07:26:47.717Z,99645.28
2022-09-01T07:27:49.811Z,99644.94
2022-09-01T07:29:01.019Z,99654.84
2022-09-01T07:30:03.187Z,99657.69
2022-09-01T07:33:54.346Z,99651.31
2022-09-01T07:34:56.718Z,99655.06
2022-09-01T07:38:49.482Z,99657.69
2022-09-01T07:39:52.087Z,99654.28
2022-09-01T07:44:10.348Z,99660.75
2022-09-01T07:45:31.584Z,99651.56
2022-09-01T07:46:37.426Z,99652.56
2022-09-01T07:47:57.103Z,99653.41
2022-09-01T07:49:03.235Z,99649.47
2022-09-01T07:50:39.743Z,99657.81
2022-09-01T07:51:42.708Z,99655.41
2022-09-01T07:52:44.368Z,99647.16
2022-09-01T07:53:48.050Z,99649.66
2022-09-01T07:54:49.649Z,99650.47
2022-09-01T07:55:53.870Z,99654.22
2022-09-01T07:56:55.995Z,99646.41
2022-09-01T07:57:58.648Z,99650.56
2022-09-01T07:59:00.476Z,99649.13
2022-09-01T08:00:04.972Z,99641.50
2022-09-01T08:01:18.748Z,99649.38
2022-09-01T08:02:21.982Z,99644.59
2022-09-01T08:03:25.102Z,99652.25
2022-09-01T08:04:26.623Z,99644.41
2022-09-01T08:05:28.759Z,99638.31
2022-09-01T08:06:38.018Z,99647.44
2022-09-01T08:07:55.894Z,99646.44
2022-09-01T08:09:02.627Z,99646.78
2022-09-01T08:10:08.615Z,99638.47
2022-09-01T08:11:51.522Z,99643.28
2022-09-01T08:12:56.355Z,99647.88
2022-09-01T08:13:59.691Z,99642.50
2022-09-01T08:16:39.361Z,99653.34
2022-09-01T08:17:52.106Z,99652.50
2022-09-01T08:18:56.121Z,99641.50
2022-09-01T08:20:23.754Z,99648.94
2022-09-01T08:21:36.983Z,99649.97
2022-09-01T08:22:53.404Z,99645.06
2022-09-01T08:24:15.104Z,99646.75
2022-09-01T08:25:19.788Z,99653.78
2022-09-01T08:26:26.064Z,99648.63
2022-09-01T08:27:28.088Z,99655.47
2022-09-01T08:28:29.805Z,99657.13
2022-09-01T08:29:31.741Z,99655.72
2022-09-01T08:30:35.048Z,99656.34
2022-09-01T08:31:37.074Z,99649.97
2022-09-01T08:32:39.513Z,99658.22
2022-09-01T08:33:42.084Z,99657.22
2022-09-01T08:34:43.979Z,99656.44
2022-09-01T08:35:49.363Z,99649.25
2022-09-01T08:36:52.544Z,99658.94
2022-09-01T08:37:54.286Z,99659.16
2022-09-01T08:38:56.137Z,99658.34
2022-09-01T08:39:58.228Z,99658.28
2022-09-01T08:41:01.071Z,99659.50
2022-09-01T08:42:24.658Z,99660.31
2022-09-01T08:43:50.135Z,99653.13
2022-09-01T08:45:05.896Z,99648.19
2022-09-01T08:46:17.013Z,99654.38
2022-09-01T08:47:28.813Z,99654.97
2022-09-01T08:50:00.657Z,99652.84
2022-09-01T08:51:42.526Z,99648.81
2022-09-01T08:53:09.623Z,99656.88
2022-09-01T08:54:42.391Z,99655.88
2022-09-01T08:55:49.901Z,99657.13
2022-09-01T08:56:57.168Z,99645.59
2022-09-01T08:58:18.705Z,99649.31
2022-09-01T08:59:39.242Z,99654.66
2022-09-01T09:01:03.388Z,99650.94
2022-09-01T09:02:11.017Z,99651.72
2022-09-01T09:03:15.241Z,99647.81
2022-09-01T09:04:32.863Z,99651.97
2022-09-01T09:05:47.225Z,99652.00
2022-09-01T09:07:17.891Z,99659.63
2022-09-01T09:08:34.292Z,99656.75
2022-09-01T09:09:53.989Z,99658.84
2022-09-01T09:11:06.511Z,99651.41
2022-09-01T09:12:10.519Z,99646.84
2022-09-01T09:13:19.429Z,99645.00
2022-09-01T09:14:54.880Z,99652.44
2022-09-01T09:16:17.396Z,99654.66
2022-09-01T09:17:26.070Z,99653.59
2022-09-01T09:18:39.667Z,99652.13
2022-09-01T09:19:44.564Z,99654.16
2022-09-01T09:20:46.066Z,99644.81
2022-09-01T09:21:49.763Z,99650.03
2022-09-01T09:22:51.695Z,99642.84
2022-09-01T09:24:08.912Z,99649.63
2022-09-01T09:25:19.409Z,99653.94
2022-09-01T09:26:22.208Z,99644.06
2022-09-01T09:28:00.511Z,99640.06
2022-09-01T09:29:02.290Z,99649.88
2022-09-01T09:30:09.507Z,99653.78
2022-09-01T09:31:28.479Z,99643.50
2022-09-01T09:34:39.656Z,99656.84
2022-09-01T09:35:45.603Z,99648.22
2022-09-01T09:36:53.872Z,99656.69
2022-09-01T09:37:56.389Z,99647.81
2022-09-01T09:39:13.873Z,99651.91
2022-09-01T09:40:27.801Z,99653.22
2022-09-01T09:41:29.500Z,99650.31
2022-09-01T09:42:34.852Z,99658.91
2022-09-01T09:43:45.422Z,99655.31
2022-09-01T09:44:50.615Z,99647.41
2022-09-01T09:46:25.257Z,99649.47
2022-09-01T09:47:46.261Z,99653.28
2022-09-01T09:48:48.494Z,99656.66
2022-09-01T09:50:11.933Z,99650.41
2022-09-01T09:51:20.864Z,99640.94
2022-09-01T09:52:22.971Z,99643.56
2022-09-01T09:53:24.365Z,99649.94
2022-09-01T09:54:29.555Z,99649.28
2022-09-01T09:55:31.102Z,99642.50
2022-09-01T09:56:33.190Z,99650.69
2022-09-01T09:57:40.628Z,99640.22
2022-09-01T09:58:44.064Z,99658.91
2022-09-01T10:00:22.150Z,99650.44
2022-09-01T10:01:30.008Z,99648.72
2022-09-01T10:02:31.532Z,99648.00
2022-09-01T10:03:45.805Z,99654.81
2022-09-01T10:04:47.344Z,99647.72
2022-09-01T10:05:50.403Z,99654.56
2022-09-01T10:06:52.043Z,99648.00
2022-09-01T10:07:55.208Z,99650.50
2022-09-01T10:08:57.505Z,99650.00
2022-09-01T10:10:03.899Z,99653.41
2022-09-01T10:11:06.814Z,99655.66
2022-09-01T10:12:11.005Z,99648.63
2022-09-01T10:13:19.145Z,99648.75
2022-09-01T10:14:35.583Z,99647.09
2022-09-01T10:15:53.215Z,99643.19
2022-09-01T10:17:04.453Z,99641.53
2022-09-01T10:19:35.755Z,99629.28
2022-09-01T10:20:39.347Z,99641.63
2022-09-01T10:21:43.562Z,99640.63
2022-09-01T10:22:45.079Z,99643.47
2022-09-01T10:23:46.653Z,99637.50
2022-09-01T10:24:50.520Z,99638.34
2022-09-01T10:26:00.851Z,99633.78
2022-09-01T10:27:13.841Z,99630.31
2022-09-01T10:28:21.222Z,99637.50
2022-09-01T10:29:47.043Z,99638.06
2022-09-01T10:30:49.184Z,99639.88
2022-09-01T10:32:08.571Z,99643.31
2022-09-01T10:33:22.169Z,99647.25
2022-09-01T10:34:25.907Z,99644.69
2022-09-01T10:35:34.393Z,99637.41
2022-09-01T10:36:37.406Z,99642.25
2022-09-01T10:37:41.346Z,99648.25
2022-09-01T10:38:50.442Z,99644.22
2022-09-01T10:40:10.810Z,99639.91
2022-09-01T10:41:47.571Z,99641.66
2022-09-01T10:42:52.057Z,99639.38
2022-09-01T10:43:54.030Z,99637.16
2022-09-01T10:44:59.564Z,99635.13
2022-09-01T10:46:50.164Z,99639.53
2022-09-01T10:47:51.888Z,99641.56
2022-09-01T10:48:57.454Z,99630.97
2022-09-01T10:50:22.841Z,99638.25
2022-09-01T10:51:28.892Z,99629.69
2022-09-01T10:52:43.772Z,99634.25
2022-09-01T10:53:47.462Z,99631.59
2022-09-01T10:54:57.432Z,99639.03
2022-09-01T10:56:19.018Z,99632.28
2022-09-01T10:58:09.279Z,99637.16
2022-09-01T10:59:40.224Z,99628.16
2022-09-01T11:02:27.491Z,99637.13
2022-09-01T11:03:40.889Z,99629.53
2022-09-01T11:04:45.860Z,99644.13
2022-09-01T11:06:11.096Z,99635.44
2022-09-01T11:07:29.753Z,99641.34
2022-09-01T11:08:50.740Z,99641.13
2022-09-01T11:10:35.346Z,99631.72
2022-09-01T11:11:48.961Z,99632.94
2022-09-01T11:13:05.381Z,99631.81
2022-09-01T11:14:24.857Z,99624.34
2022-09-01T11:15:41.440Z,99627.84
2022-09-01T11:16:46.628Z,99622.56
2022-09-01T11:17:51.111Z,99628.00
2022-09-01T11:18:53.357Z,99632.22
2022-09-01T11:19:58.805Z,99623.22
2022-09-01T11:21:23.267Z,99633.53
2022-09-01T11:22:32.589Z,99623.88
2022-09-01T11:23:34.064Z,99622.47
2022-09-01T11:24:38.299Z,99629.25
2022-09-01T11:25:41.955Z,99633.59
2022-09-01T11:26:48.296Z,99630.50
2022-09-01T11:27:49.700Z,99631.50
2022-09-01T11:28:51.268Z,99634.53
2022-09-01T11:30:01.968Z,99630.53
2022-09-01T11:31:18.627Z,99633.78
2022-09-01T11:32:24.815Z,99633.97
2022-09-01T11:33:33.573Z,99635.38
2022-09-01T11:34:42.383Z,99632.44
2022-09-01T11:35:46.711Z,99632.59
2022-09-01T11:36:54.456Z,99630.84
2022-09-01T11:38:01.858Z,99636.13
2022-09-01T11:39:36.337Z,99639.13
2022-09-01T11:40:37.879Z,99631.75
2022-09-01T11:42:04.388Z,99637.44
2022-09-01T11:43:17.081Z,99617.97
2022-09-01T11:44:33.843Z,99627.13
2022-09-01T11:45:49.002Z,99625.03
2022-09-01T11:46:52.367Z,99629.09
2022-09-01T11:48:01.342Z,99627.84
2022-09-01T11:49:18.310Z,99621.66
2022-09-01T11:50:21.778Z,99627.53
2022-09-01T11:51:23.339Z,99621.09
2022-09-01T11:52:28.767Z,99622.75
2022-09-01T11:53:30.769Z,99621.09
2022-09-01T11:54:43.956Z,99614.56
2022-09-01T11:55:51.566Z,99624.47
2022-09-01T11:56:53.151Z,99622.09
2022-09-01T11:57:55.205Z,99611.66
2022-09-01T11:58:56.675Z,99616.66
2022-09-01T12:00:00.704Z,99606.50
2022-09-01T12:01:13.852Z,99612.34
2022-09-01T12:02:27.880Z,99607.44
2022-09-01T12:03:30.337Z,99606.69
2022-09-01T12:04:34.837Z,99609.59
2022-09-01T12:05:37.876Z,99603.03
2022-09-01T12:06:39.413Z,99605.72
2022-09-01T12:07:47.186Z,99606.34
2022-09-01T12:08:55.930Z,99601.41
2022-09-01T12:09:57.510Z,99604.06
2022-09-01T12:11:08.293Z,99604.47
2022-09-01T12:12:32.365Z,99599.75
2022-09-01T12:13:33.986Z,99601.56
2022-09-01T12:14:55.299Z,99600.31
2022-09-01T12:16:17.960Z,99601.13
2022-09-01T12:17:20.782Z,99596.69
2022-09-01T12:18:26.047Z,99599.34
2022-09-01T12:19:33.207Z,99589.66
2022-09-01T12:20:37.222Z,99594.44
2022-09-01T12:21:43.476Z,99588.53
2022-09-01T12:22:45.420Z,99595.91
2022-09-01T12:23:47.140Z,99592.78
2022-09-01T12:24:53.930Z,99590.34
2022-09-01T12:25:58.732Z,99586.66
2022-09-01T12:27:01.079Z,99584.56
2022-09-01T12:28:04.439Z,99589.16
2022-09-01T12:29:06.380Z,99581.59
2022-09-01T12:30:08.516Z,99585.41
2022-09-01T12:31:16.417Z,99591.16
2022-09-01T12:32:18.732Z,99589.72
2022-09-01T12:33:23.363Z,99589.50
2022-09-01T12:34:39.628Z,99590.50
2022-09-01T12:35:41.313Z,99590.84
2022-09-01T12:36:42.812Z,99597.81
2022-09-01T12:37:44.782Z,99593.81
2022-09-01T12:38:46.309Z,99595.66
2022-09-01T12:39:50.617Z,99596.00
2022-09-01T12:40:54.808Z,99592.28
2022-09-01T12:42:08.646Z,99596.44
2022-09-01T12:43:10.167Z,99593.09
2022-09-01T12:44:51.957Z,99597.09
2022-09-01T12:45:53.529Z,99592.56
2022-09-01T12:46:55.779Z,99590.53
2022-09-01T12:47:57.259Z,99590.31
2022-09-01T12:49:16.929Z,99589.28
2022-09-01T12:50:18.344Z,99590.59
2022-09-01T12:51:26.506Z,99588.16
2022-09-01T12:52:33.007Z,99578.97
2022-09-01T12:53:36.622Z,99582.72
2022-09-01T12:54:38.674Z,99578.44
2022-09-01T12:55:47.802Z,99583.66
2022-09-01T12:56:50.616Z,99583.84
2022-09-01T12:57:55.579Z,99583.22
2022-09-01T12:59:05.045Z,99586.47
2022-09-01T13:00:20.341Z,99581.16
2022-09-01T13:01:31.523Z,99589.25
2022-09-01T13:02:39.810Z,99582.47
2022-09-01T13:03:41.400Z,99589.28
2022-09-01T13:04:42.908Z,99576.09
2022-09-01T13:05:51.775Z,99580.22
2022-09-01T13:06:57.632Z,99581.66
2022-09-01T13:08:01.724Z,99581.03
2022-09-01T13:09:03.712Z,99579.41
2022-09-01T13:10:07.305Z,99577.69
2022-09-01T13:11:15.198Z,99570.47
2022-09-01T13:12:21.572Z,99577.03
2022-09-01T13:13:25.140Z,99584.59
2022-09-01T13:14:26.617Z,99582.31
2022-09-01T13:15:28.177Z,99586.25
2022-09-01T13:16:29.787Z,99581.75
2022-09-01T13:17:31.293Z,99580.91
2022-09-01T13:18:32.971Z,99587.09
2022-09-01T13:19:34.477Z,99586.47
2022-09-01T13:20:36.262Z,99580.09
2022-09-01T13:22:44.619Z,99584.66
2022-09-01T13:23:46.134Z,99584.50
2022-09-01T13:24:48.015Z,99589.88
2022-09-01T13:25:50.305Z,99587.97
2022-09-01T13:28:16.354Z,99594.97